sensor_id;sensor_type;location;lat;lon;timestamp;pressure;altitude;pressure_sealevel;temperature;humidity
38718;BME280;24468;52.128;9.278;2023-05-07T00:02:21;100990.66;;;13.02;100.00
38718;BME280;24468;52.128;9.278;2023-05-07T00:04:48;100986.78;;;13.07;100.00
38718;BME280;24468;52.128;9.278;2023-05-07T00:07:14;100984.44;;;12.81;100.00
38718;BME280;24468;52.128;9.278;2023-05-07T00:09:40;100987.34;;;12.76;100.00
38718;BME280;24468;52.128;9.278;2023-05-07T00:12:05;100983.47;;;12.82;100.00
38718;BME280;24468;52.128;9.278;2023-05-07T00:14:31;100970.91;;;12.81;100.00
38718;BME280;24468;52.128;9.278;2023-05-07T00:16:57;100978.59;;;12.30;100.00
38718;BME280;24468;52.128;9.278;2023-05-07T00:19:22;100974.94;;;12.52;100.00
38718;BME280;24468;52.128;9.278;2023-05-07T00:21:48;100971.38;;;12.31;100.00
38718;BME280;24468;52.128;9.278;2023-05-07T00:24:13;100958.59;;;12.34;100.00
38718;BME280;24468;52.128;9.278;2023-05-07T00:26:39;100965.75;;;12.35;100.00
38718;BME280;24468;52.128;9.278;2023-05-07T00:29:04;100957.75;;;12.53;100.00
38718;BME280;24468;52.128;9.278;2023-05-07T00:31:30;100956.91;;;12.11;100.00
38718;BME280;24468;52.128;9.278;2023-05-07T00:33:55;100962.22;;;12.33;100.00
38718;BME280;24468;52.128;9.278;2023-05-07T00:36:21;100969.88;;;12.44;100.00
38718;BME280;24468;52.128;9.278;2023-05-07T00:38:46;100968.16;;;12.62;100.00
38718;BME280;24468;52.128;9.278;2023-05-07T00:41:12;100976.19;;;12.63;100.00
38718;BME280;24468;52.128;9.278;2023-05-07T00:43:37;100972.56;;;12.83;100.00
38718;BME280;24468;52.128;9.278;2023-05-07T00:46:03;100969.72;;;12.67;100.00
38718;BME280;24468;52.128;9.278;2023-05-07T00:48:28;100974.41;;;12.43;100.00
38718;BME280;24468;52.128;9.278;2023-05-07T00:50:55;100967.34;;;12.60;100.00
38718;BME280;24468;52.128;9.278;2023-05-07T00:53:21;100960.41;;;12.73;100.00
38718;BME280;24468;52.128;9.278;2023-05-07T00:55:48;100963.72;;;12.40;100.00
38718;BME280;24468;52.128;9.278;2023-05-07T00:58:13;100983.59;;;12.60;100.00
38718;BME280;24468;52.128;9.278;2023-05-07T01:00:39;100977.34;;;12.58;100.00
38718;BME280;24468;52.128;9.278;2023-05-07T01:03:05;100987.63;;;12.70;100.00
38718;BME280;24468;52.128;9.278;2023-05-07T01:05:31;100986.16;;;12.63;100.00
38718;BME280;24468;52.128;9.278;2023-05-07T01:07:57;100982.09;;;12.53;100.00
38718;BME280;24468;52.128;9.278;2023-05-07T01:10:24;100987.16;;;12.60;100.00
38718;BME280;24468;52.128;9.278;2023-05-07T01:12:50;100986.28;;;12.60;100.00
38718;BME280;24468;52.128;9.278;2023-05-07T01:15:16;100982.56;;;12.62;100.00
38718;BME280;24468;52.128;9.278;2023-05-07T01:17:42;100976.09;;;12.26;100.00
38718;BME280;24468;52.128;9.278;2023-05-07T01:20:09;100976.38;;;12.19;100.00
38718;BME280;24468;52.128;9.278;2023-05-07T01:22:37;100978.59;;;12.30;100.00
38718;BME280;24468;52.128;9.278;2023-05-07T01:25:04;100986.59;;;12.33;100.00
38718;BME280;24468;52.128;9.278;2023-05-07T01:27:30;100976.28;;;12.41;100.00
38718;BME280;24468;52.128;9.278;2023-05-07T01:29:56;100971.44;;;12.29;100.00
38718;BME280;24468;52.128;9.278;2023-05-07T01:32:42;100972.84;;;12.38;100.00
38718;BME280;24468;52.128;9.278;2023-05-07T01:35:18;100970.06;;;12.39;100.00
38718;BME280;24468;52.128;9.278;2023-05-07T01:37:44;100973.66;;;12.19;100.00
38718;BME280;24468;52.128;9.278;2023-05-07T01:40:11;100969.41;;;12.34;100.00
38718;BME280;24468;52.128;9.278;2023-05-07T01:42:37;100974.88;;;12.33;100.00
38718;BME280;24468;52.128;9.278;2023-05-07T01:45:03;100983.41;;;12.44;100.00
38718;BME280;24468;52.128;9.278;2023-05-07T01:47:30;100987.16;;;12.21;100.00
38718;BME280;24468;52.128;9.278;2023-05-07T01:49:56;100970.91;;;12.21;100.00
38718;BME280;24468;52.128;9.278;2023-05-07T01:52:22;100988.63;;;12.08;100.00
38718;BME280;24468;52.128;9.278;2023-05-07T01:54:48;100978.47;;;12.13;100.00
38718;BME280;24468;52.128;9.278;2023-05-07T01:57:13;100984.97;;;12.29;100.00
38718;BME280;24468;52.128;9.278;2023-05-07T01:59:39;100986.88;;;12.27;100.00
38718;BME280;24468;52.128;9.278;2023-05-07T02:02:04;100983.19;;;12.49;100.00
38718;BME280;24468;52.128;9.278;2023-05-07T02:04:30;100993.63;;;12.37;100.00
38718;BME280;24468;52.128;9.278;2023-05-07T02:06:55;101002.41;;;12.22;100.00
38718;BME280;24468;52.128;9.278;2023-05-07T02:09:21;101004.78;;;12.30;100.00
38718;BME280;24468;52.128;9.278;2023-05-07T02:11:47;101009.19;;;12.32;100.00
38718;BME280;24468;52.128;9.278;2023-05-07T02:14:12;101002.81;;;12.13;100.00
38718;BME280;24468;52.128;9.278;2023-05-07T02:16:38;101017.34;;;12.31;100.00
38718;BME280;24468;52.128;9.278;2023-05-07T02:19:03;101005.84;;;12.26;100.00
38718;BME280;24468;52.128;9.278;2023-05-07T02:21:29;101008.09;;;12.36;100.00
38718;BME280;24468;52.128;9.278;2023-05-07T02:23:54;101008.47;;;12.48;100.00
38718;BME280;24468;52.128;9.278;2023-05-07T02:26:20;101016.06;;;12.19;100.00
38718;BME280;24468;52.128;9.278;2023-05-07T02:28:46;101013.41;;;11.97;100.00
38718;BME280;24468;52.128;9.278;2023-05-07T02:31:12;101014.53;;;12.13;100.00
38718;BME280;24468;52.128;9.278;2023-05-07T02:33:38;101012.88;;;11.89;100.00
38718;BME280;24468;52.128;9.278;2023-05-07T02:36:10;101003.94;;;11.87;100.00
38718;BME280;24468;52.128;9.278;2023-05-07T02:38:36;101006.81;;;11.82;100.00
38718;BME280;24468;52.128;9.278;2023-05-07T02:41:02;100997.38;;;11.92;100.00
38718;BME280;24468;52.128;9.278;2023-05-07T02:43:27;101008.00;;;11.75;100.00
38718;BME280;24468;52.128;9.278;2023-05-07T02:46:07;100997.34;;;11.94;100.00
38718;BME280;24468;52.128;9.278;2023-05-07T02:48:33;100999.84;;;11.76;100.00
38718;BME280;24468;52.128;9.278;2023-05-07T02:50:59;101001.47;;;11.80;100.00
38718;BME280;24468;52.128;9.278;2023-05-07T02:53:26;101005.81;;;12.07;100.00
38718;BME280;24468;52.128;9.278;2023-05-07T02:56:00;101004.03;;;12.06;100.00
38718;BME280;24468;52.128;9.278;2023-05-07T02:58:26;101001.47;;;12.02;100.00
38718;BME280;24468;52.128;9.278;2023-05-07T03:00:52;101007.88;;;11.78;100.00
38718;BME280;24468;52.128;9.278;2023-05-07T03:03:18;101008.97;;;11.96;100.00
38718;BME280;24468;52.128;9.278;2023-05-07T03:05:43;101011.63;;;12.18;100.00
38718;BME280;24468;52.128;9.278;2023-05-07T03:08:09;101006.47;;;12.12;100.00
38718;BME280;24468;52.128;9.278;2023-05-07T03:10:36;101003.91;;;12.29;100.00
38718;BME280;24468;52.128;9.278;2023-05-07T03:13:02;101008.75;;;12.41;100.00
38718;BME280;24468;52.128;9.278;2023-05-07T03:15:28;101007.00;;;11.99;100.00
38718;BME280;24468;52.128;9.278;2023-05-07T03:17:54;101000.81;;;12.18;100.00
38718;BME280;24468;52.128;9.278;2023-05-07T03:20:19;100993.91;;;12.11;100.00
38718;BME280;24468;52.128;9.278;2023-05-07T03:22:45;101004.16;;;12.23;100.00
38718;BME280;24468;52.128;9.278;2023-05-07T03:25:10;100985.19;;;12.04;100.00
38718;BME280;24468;52.128;9.278;2023-05-07T03:27:36;100979.09;;;11.99;100.00
38718;BME280;24468;52.128;9.278;2023-05-07T03:30:03;100982.53;;;11.80;100.00
38718;BME280;24468;52.128;9.278;2023-05-07T03:32:29;100980.31;;;12.12;100.00
38718;BME280;24468;52.128;9.278;2023-05-07T03:34:55;100983.50;;;12.01;100.00
38718;BME280;24468;52.128;9.278;2023-05-07T03:37:21;100994.19;;;11.83;100.00
38718;BME280;24468;52.128;9.278;2023-05-07T03:39:47;100992.53;;;12.00;100.00
38718;BME280;24468;52.128;9.278;2023-05-07T03:42:13;100995.16;;;12.22;100.00
38718;BME280;24468;52.128;9.278;2023-05-07T03:44:38;101006.00;;;12.02;100.00
38718;BME280;24468;52.128;9.278;2023-05-07T03:47:04;101000.44;;;11.83;100.00
38718;BME280;24468;52.128;9.278;2023-05-07T03:49:30;101000.50;;;11.82;100.00
38718;BME280;24468;52.128;9.278;2023-05-07T03:51:55;101008.47;;;11.86;100.00
38718;BME280;24468;52.128;9.278;2023-05-07T03:54:21;101002.75;;;11.94;100.00
38718;BME280;24468;52.128;9.278;2023-05-07T03:56:47;101009.97;;;11.93;100.00
38718;BME280;24468;52.128;9.278;2023-05-07T03:59:13;101009.06;;;11.93;100.00
38718;BME280;24468;52.128;9.278;2023-05-07T04:01:39;101007.38;;;12.12;100.00
38718;BME280;24468;52.128;9.278;2023-05-07T04:04:04;101014.78;;;11.85;100.00
38718;BME280;24468;52.128;9.278;2023-05-07T04:06:30;101003.09;;;12.07;100.00
38718;BME280;24468;52.128;9.278;2023-05-07T04:08:56;101008.41;;;11.88;100.00
38718;BME280;24468;52.128;9.278;2023-05-07T04:11:23;101007.38;;;11.46;100.00
38718;BME280;24468;52.128;9.278;2023-05-07T04:13:48;101013.72;;;11.45;100.00
38718;BME280;24468;52.128;9.278;2023-05-07T04:16:14;101019.84;;;11.94;100.00
38718;BME280;24468;52.128;9.278;2023-05-07T04:18:40;101023.22;;;11.99;100.00
38718;BME280;24468;52.128;9.278;2023-05-07T04:21:05;101021.06;;;12.08;100.00
38718;BME280;24468;52.128;9.278;2023-05-07T04:23:31;101018.81;;;11.75;100.00
38718;BME280;24468;52.128;9.278;2023-05-07T04:25:56;101015.94;;;11.79;100.00
38718;BME280;24468;52.128;9.278;2023-05-07T04:28:23;101019.09;;;11.91;100.00
38718;BME280;24468;52.128;9.278;2023-05-07T04:30:48;101020.03;;;11.90;100.00
38718;BME280;24468;52.128;9.278;2023-05-07T04:33:14;101021.66;;;11.94;100.00
38718;BME280;24468;52.128;9.278;2023-05-07T04:35:42;101021.09;;;11.86;100.00
38718;BME280;24468;52.128;9.278;2023-05-07T04:38:07;101030.19;;;11.83;100.00
38718;BME280;24468;52.128;9.278;2023-05-07T04:40:35;101031.25;;;12.01;100.00
38718;BME280;24468;52.128;9.278;2023-05-07T04:43:00;101036.41;;;11.85;100.00
38718;BME280;24468;52.128;9.278;2023-05-07T04:45:26;101038.25;;;12.07;100.00
38718;BME280;24468;52.128;9.278;2023-05-07T04:47:52;101029.06;;;12.11;100.00
38718;BME280;24468;52.128;9.278;2023-05-07T04:50:18;101030.16;;;12.07;100.00
38718;BME280;24468;52.128;9.278;2023-05-07T04:52:44;101041.88;;;12.06;100.00
38718;BME280;24468;52.128;9.278;2023-05-07T04:55:10;101039.28;;;12.04;100.00
38718;BME280;24468;52.128;9.278;2023-05-07T04:57:36;101040.69;;;12.13;100.00
38718;BME280;24468;52.128;9.278;2023-05-07T05:00:03;101055.66;;;12.21;100.00
38718;BME280;24468;52.128;9.278;2023-05-07T05:02:29;101060.41;;;12.15;100.00
38718;BME280;24468;52.128;9.278;2023-05-07T05:04:55;101056.03;;;12.12;100.00
38718;BME280;24468;52.128;9.278;2023-05-07T05:07:20;101053.22;;;12.15;100.00
38718;BME280;24468;52.128;9.278;2023-05-07T05:09:46;101049.28;;;12.22;100.00
38718;BME280;24468;52.128;9.278;2023-05-07T05:12:11;101054.22;;;12.33;100.00
38718;BME280;24468;52.128;9.278;2023-05-07T05:14:37;101059.50;;;12.36;100.00
38718;BME280;24468;52.128;9.278;2023-05-07T05:17:02;101063.91;;;12.18;100.00
38718;BME280;24468;52.128;9.278;2023-05-07T05:19:28;101065.50;;;12.22;100.00
38718;BME280;24468;52.128;9.278;2023-05-07T05:21:54;101065.69;;;12.40;100.00
38718;BME280;24468;52.128;9.278;2023-05-07T05:24:19;101070.25;;;11.95;100.00
38718;BME280;24468;52.128;9.278;2023-05-07T05:26:45;101072.28;;;12.12;100.00
38718;BME280;24468;52.128;9.278;2023-05-07T05:29:11;101067.41;;;12.20;100.00
38718;BME280;24468;52.128;9.278;2023-05-07T05:31:36;101066.03;;;12.10;100.00
38718;BME280;24468;52.128;9.278;2023-05-07T05:34:02;101068.53;;;12.15;100.00
38718;BME280;24468;52.128;9.278;2023-05-07T05:36:28;101065.09;;;12.11;100.00
38718;BME280;24468;52.128;9.278;2023-05-07T05:38:53;101060.38;;;12.16;100.00
38718;BME280;24468;52.128;9.278;2023-05-07T05:41:19;101054.22;;;12.33;100.00
38718;BME280;24468;52.128;9.278;2023-05-07T05:43:44;101059.63;;;12.33;100.00
38718;BME280;24468;52.128;9.278;2023-05-07T05:46:10;101060.66;;;12.31;100.00
38718;BME280;24468;52.128;9.278;2023-05-07T05:48:36;101067.22;;;12.45;100.00
38718;BME280;24468;52.128;9.278;2023-05-07T05:51:02;101059.25;;;12.42;100.00
38718;BME280;24468;52.128;9.278;2023-05-07T05:53:28;101063.94;;;12.17;100.00
38718;BME280;24468;52.128;9.278;2023-05-07T05:55:53;101064.22;;;12.11;100.00
38718;BME280;24468;52.128;9.278;2023-05-07T05:58:19;101070.19;;;12.39;100.00
38718;BME280;24468;52.128;9.278;2023-05-07T06:00:46;101070.81;;;12.04;100.00
38718;BME280;24468;52.128;9.278;2023-05-07T06:03:13;101072.34;;;12.31;100.00
38718;BME280;24468;52.128;9.278;2023-05-07T06:05:39;101072.03;;;12.59;100.00
38718;BME280;24468;52.128;9.278;2023-05-07T06:08:04;101083.06;;;12.55;100.00
38718;BME280;24468;52.128;9.278;2023-05-07T06:10:30;101078.47;;;12.57;100.00
38718;BME280;24468;52.128;9.278;2023-05-07T06:12:55;101074.66;;;12.81;100.00
38718;BME280;24468;52.128;9.278;2023-05-07T06:15:21;101083.75;;;12.60;100.00
38718;BME280;24468;52.128;9.278;2023-05-07T06:17:47;101076.03;;;12.51;100.00
38718;BME280;24468;52.128;9.278;2023-05-07T06:20:12;101074.25;;;12.50;100.00
38718;BME280;24468;52.128;9.278;2023-05-07T06:22:38;101072.28;;;12.74;100.00
38718;BME280;24468;52.128;9.278;2023-05-07T06:25:03;101080.53;;;12.50;100.00
38718;BME280;24468;52.128;9.278;2023-05-07T06:27:29;101078.00;;;12.67;100.00
38718;BME280;24468;52.128;9.278;2023-05-07T06:29:54;101088.34;;;12.78;100.00
38718;BME280;24468;52.128;9.278;2023-05-07T06:32:20;101087.13;;;12.65;100.00
38718;BME280;24468;52.128;9.278;2023-05-07T06:34:45;101084.69;;;12.79;100.00
38718;BME280;24468;52.128;9.278;2023-05-07T06:37:11;101091.75;;;13.02;100.00
38718;BME280;24468;52.128;9.278;2023-05-07T06:39:37;101091.38;;;12.71;100.00
38718;BME280;24468;52.128;9.278;2023-05-07T06:42:02;101097.78;;;12.88;100.00
38718;BME280;24468;52.128;9.278;2023-05-07T06:44:30;101095.75;;;12.94;100.00
38718;BME280;24468;52.128;9.278;2023-05-07T06:46:55;101100.84;;;12.60;100.00
38718;BME280;24468;52.128;9.278;2023-05-07T06:49:21;101094.97;;;12.51;100.00
38718;BME280;24468;52.128;9.278;2023-05-07T06:51:47;101091.06;;;12.78;100.00
38718;BME280;24468;52.128;9.278;2023-05-07T06:54:12;101093.28;;;12.68;100.00
38718;BME280;24468;52.128;9.278;2023-05-07T06:56:38;101099.75;;;12.85;100.00
38718;BME280;24468;52.128;9.278;2023-05-07T06:59:03;101093.69;;;12.59;100.00
38718;BME280;24468;52.128;9.278;2023-05-07T07:01:29;101099.56;;;12.69;100.00
38718;BME280;24468;52.128;9.278;2023-05-07T07:03:54;101091.19;;;12.55;100.00
38718;BME280;24468;52.128;9.278;2023-05-07T07:06:20;101094.00;;;12.72;100.00
38718;BME280;24468;52.128;9.278;2023-05-07T07:08:46;101095.31;;;12.84;100.00
38718;BME280;24468;52.128;9.278;2023-05-07T07:11:11;101103.28;;;12.87;100.00
38718;BME280;24468;52.128;9.278;2023-05-07T07:13:37;101109.47;;;13.09;100.00
38718;BME280;24468;52.128;9.278;2023-05-07T07:16:03;101106.13;;;12.84;100.00
38718;BME280;24468;52.128;9.278;2023-05-07T07:18:28;101107.53;;;12.72;100.00
38718;BME280;24468;52.128;9.278;2023-05-07T07:20:54;101106.63;;;12.73;100.00
38718;BME280;24468;52.128;9.278;2023-05-07T07:23:19;101115.41;;;12.58;100.00
38718;BME280;24468;52.128;9.278;2023-05-07T07:25:45;101112.56;;;12.61;100.00
38718;BME280;24468;52.128;9.278;2023-05-07T07:28:11;101119.94;;;12.78;100.00
38718;BME280;24468;52.128;9.278;2023-05-07T07:30:37;101116.03;;;12.64;100.00
38718;BME280;24468;52.128;9.278;2023-05-07T07:33:03;101122.09;;;12.69;100.00
38718;BME280;24468;52.128;9.278;2023-05-07T07:35:29;101128.00;;;12.79;100.00
38718;BME280;24468;52.128;9.278;2023-05-07T07:37:55;101139.63;;;13.02;100.00
38718;BME280;24468;52.128;9.278;2023-05-07T07:40:21;101133.38;;;13.00;100.00
38718;BME280;24468;52.128;9.278;2023-05-07T07:42:47;101130.50;;;12.84;100.00
38718;BME280;24468;52.128;9.278;2023-05-07T07:45:12;101135.16;;;13.01;100.00
38718;BME280;24468;52.128;9.278;2023-05-07T07:47:39;101128.59;;;13.06;100.00
38718;BME280;24468;52.128;9.278;2023-05-07T07:50:06;101123.50;;;13.19;100.00
38718;BME280;24468;52.128;9.278;2023-05-07T07:52:32;101128.19;;;12.95;100.00
38718;BME280;24468;52.128;9.278;2023-05-07T07:54:58;101131.81;;;12.75;100.00
38718;BME280;24468;52.128;9.278;2023-05-07T07:57:23;101124.53;;;12.96;100.00
38718;BME280;24468;52.128;9.278;2023-05-07T07:59:49;101124.34;;;13.01;100.00
38718;BME280;24468;52.128;9.278;2023-05-07T08:02:16;101126.84;;;12.64;100.00
38718;BME280;24468;52.128;9.278;2023-05-07T08:04:42;101117.84;;;12.64;100.00
38718;BME280;24468;52.128;9.278;2023-05-07T08:07:09;101134.16;;;12.83;100.00
38718;BME280;24468;52.128;9.278;2023-05-07T08:09:36;101138.88;;;12.78;100.00
38718;BME280;24468;52.128;9.278;2023-05-07T08:12:02;101137.88;;;13.01;100.00
38718;BME280;24468;52.128;9.278;2023-05-07T08:14:28;101139.47;;;12.64;100.00
38718;BME280;24468;52.128;9.278;2023-05-07T08:16:54;101145.44;;;12.72;100.00
38718;BME280;24468;52.128;9.278;2023-05-07T08:19:20;101142.81;;;12.91;100.00
38718;BME280;24468;52.128;9.278;2023-05-07T08:21:46;101139.22;;;12.90;100.00
38718;BME280;24468;52.128;9.278;2023-05-07T08:24:14;101129.00;;;12.77;100.00
38718;BME280;24468;52.128;9.278;2023-05-07T08:26:39;101141.88;;;12.72;100.00
38718;BME280;24468;52.128;9.278;2023-05-07T08:29:05;101132.47;;;13.01;100.00
38718;BME280;24468;52.128;9.278;2023-05-07T08:31:31;101128.97;;;13.18;100.00
38718;BME280;24468;52.128;9.278;2023-05-07T08:33:57;101138.16;;;12.95;100.00
38718;BME280;24468;52.128;9.278;2023-05-07T08:36:23;101132.59;;;12.77;100.00
38718;BME280;24468;52.128;9.278;2023-05-07T08:38:48;101142.69;;;12.74;100.00
38718;BME280;24468;52.128;9.278;2023-05-07T08:41:15;101125.59;;;13.12;100.00
38718;BME280;24468;52.128;9.278;2023-05-07T08:43:41;101130.47;;;13.04;100.00
38718;BME280;24468;52.128;9.278;2023-05-07T08:46:10;101143.25;;;13.21;100.00
38718;BME280;24468;52.128;9.278;2023-05-07T08:48:37;101138.47;;;13.28;100.00
38718;BME280;24468;52.128;9.278;2023-05-07T08:51:03;101149.63;;;13.20;100.00
38718;BME280;24468;52.128;9.278;2023-05-07T08:53:28;101149.84;;;13.36;100.00
38718;BME280;24468;52.128;9.278;2023-05-07T08:55:54;101141.34;;;13.44;100.00
38718;BME280;24468;52.128;9.278;2023-05-07T08:58:20;101144.38;;;13.56;100.00
38718;BME280;24468;52.128;9.278;2023-05-07T09:00:46;101135.34;;;13.56;100.00
38718;BME280;24468;52.128;9.278;2023-05-07T09:03:12;101139.59;;;13.43;100.00
38718;BME280;24468;52.128;9.278;2023-05-07T09:05:39;101136.38;;;13.53;100.00
38718;BME280;24468;52.128;9.278;2023-05-07T09:08:07;101143.28;;;13.79;100.00
38718;BME280;24468;52.128;9.278;2023-05-07T09:10:33;101147.69;;;13.63;100.00
38718;BME280;24468;52.128;9.278;2023-05-07T09:12:59;101145.41;;;13.73;100.00
38718;BME280;24468;52.128;9.278;2023-05-07T09:15:26;101143.25;;;13.98;100.00
38718;BME280;24468;52.128;9.278;2023-05-07T09:17:53;101141.00;;;13.89;100.00
38718;BME280;24468;52.128;9.278;2023-05-07T09:20:18;101143.13;;;14.01;100.00
38718;BME280;24468;52.128;9.278;2023-05-07T09:22:44;101141.78;;;14.10;100.00
38718;BME280;24468;52.128;9.278;2023-05-07T09:25:10;101141.53;;;14.15;100.00
38718;BME280;24468;52.128;9.278;2023-05-07T09:27:36;101148.94;;;14.11;100.00
38718;BME280;24468;52.128;9.278;2023-05-07T09:30:06;101138.97;;;14.48;100.00
38718;BME280;24468;52.128;9.278;2023-05-07T09:32:35;101143.75;;;14.43;100.00
38718;BME280;24468;52.128;9.278;2023-05-07T09:35:03;101146.47;;;14.07;100.00
38718;BME280;24468;52.128;9.278;2023-05-07T09:37:31;101153.00;;;14.02;100.00
38718;BME280;24468;52.128;9.278;2023-05-07T09:39:56;101141.75;;;14.29;100.00
38718;BME280;24468;52.128;9.278;2023-05-07T09:42:25;101141.50;;;14.34;100.00
38718;BME280;24468;52.128;9.278;2023-05-07T09:44:52;101140.94;;;14.27;100.00
38718;BME280;24468;52.128;9.278;2023-05-07T09:47:24;101140.44;;;14.55;100.00
38718;BME280;24468;52.128;9.278;2023-05-07T09:49:50;101136.44;;;14.80;100.00
38718;BME280;24468;52.128;9.278;2023-05-07T09:52:19;101143.16;;;14.55;100.00
38718;BME280;24468;52.128;9.278;2023-05-07T09:54:46;101123.16;;;14.91;100.00
38718;BME280;24468;52.128;9.278;2023-05-07T09:57:13;101130.41;;;15.08;100.00
38718;BME280;24468;52.128;9.278;2023-05-07T09:59:42;101129.19;;;15.31;100.00
38718;BME280;24468;52.128;9.278;2023-05-07T10:02:09;101136.13;;;15.19;100.00
38718;BME280;24468;52.128;9.278;2023-05-07T10:04:35;101132.75;;;14.98;100.00
38718;BME280;24468;52.128;9.278;2023-05-07T10:07:03;101134.81;;;15.10;100.00
38718;BME280;24468;52.128;9.278;2023-05-07T10:09:30;101127.78;;;15.06;100.00
38718;BME280;24468;52.128;9.278;2023-05-07T10:11:56;101129.06;;;15.32;100.00
38718;BME280;24468;52.128;9.278;2023-05-07T10:14:22;101131.00;;;15.79;100.00
38718;BME280;24468;52.128;9.278;2023-05-07T10:16:48;101134.09;;;16.05;100.00
38718;BME280;24468;52.128;9.278;2023-05-07T10:19:14;101137.72;;;15.56;100.00
38718;BME280;24468;52.128;9.278;2023-05-07T10:21:48;101128.59;;;15.57;100.00
38718;BME280;24468;52.128;9.278;2023-05-07T10:24:25;101128.75;;;16.50;100.00
38718;BME280;24468;52.128;9.278;2023-05-07T10:26:53;101132.13;;;16.23;100.00
38718;BME280;24468;52.128;9.278;2023-05-07T10:32:51;101142.72;;;15.97;100.00
38718;BME280;24468;52.128;9.278;2023-05-07T10:35:29;101144.56;;;16.13;100.00
38718;BME280;24468;52.128;9.278;2023-05-07T10:37:57;101148.16;;;16.13;100.00
38718;BME280;24468;52.128;9.278;2023-05-07T10:40:22;101147.59;;;16.38;100.00
38718;BME280;24468;52.128;9.278;2023-05-07T10:43:00;101142.44;;;15.70;100.00
38718;BME280;24468;52.128;9.278;2023-05-07T10:45:27;101142.53;;;16.16;100.00
38718;BME280;24468;52.128;9.278;2023-05-07T10:48:12;101138.69;;;15.89;100.00
38718;BME280;24468;52.128;9.278;2023-05-07T10:50:42;101135.63;;;16.41;100.00
38718;BME280;24468;52.128;9.278;2023-05-07T10:55:51;101136.09;;;16.63;100.00
38718;BME280;24468;52.128;9.278;2023-05-07T10:58:27;101139.03;;;16.91;100.00
38718;BME280;24468;52.128;9.278;2023-05-07T11:01:00;101132.38;;;16.80;100.00
38718;BME280;24468;52.128;9.278;2023-05-07T11:03:28;101135.03;;;16.82;100.00
38718;BME280;24468;52.128;9.278;2023-05-07T11:06:15;101137.63;;;16.83;100.00
38718;BME280;24468;52.128;9.278;2023-05-07T11:08:54;101130.78;;;17.49;100.00
38718;BME280;24468;52.128;9.278;2023-05-07T11:14:07;101134.00;;;17.13;100.00
38718;BME280;24468;52.128;9.278;2023-05-07T11:16:32;101132.06;;;17.58;100.00
38718;BME280;24468;52.128;9.278;2023-05-07T11:19:01;101139.44;;;16.99;100.00
38718;BME280;24468;52.128;9.278;2023-05-07T11:21:46;101123.88;;;17.29;100.00
38718;BME280;24468;52.128;9.278;2023-05-07T11:24:13;101129.34;;;17.58;100.00
38718;BME280;24468;52.128;9.278;2023-05-07T11:26:46;101130.69;;;17.65;100.00
38718;BME280;24468;52.128;9.278;2023-05-07T11:29:22;101126.22;;;17.21;100.00
38718;BME280;24468;52.128;9.278;2023-05-07T11:31:52;101134.19;;;17.24;100.00
38718;BME280;24468;52.128;9.278;2023-05-07T11:34:26;101131.44;;;17.96;100.00
38718;BME280;24468;52.128;9.278;2023-05-07T11:36:52;101132.22;;;17.98;100.00
38718;BME280;24468;52.128;9.278;2023-05-07T11:39:32;101135.19;;;17.81;100.00
38718;BME280;24468;52.128;9.278;2023-05-07T11:42:02;101135.69;;;18.14;100.00
38718;BME280;24468;52.128;9.278;2023-05-07T11:44:46;101126.00;;;18.23;100.00
38718;BME280;24468;52.128;9.278;2023-05-07T11:47:20;101126.63;;;18.41;100.00
38718;BME280;24468;52.128;9.278;2023-05-07T11:49:51;101130.44;;;18.38;100.00
38718;BME280;24468;52.128;9.278;2023-05-07T11:52:18;101118.84;;;18.35;100.00
38718;BME280;24468;52.128;9.278;2023-05-07T11:54:54;101119.56;;;18.51;100.00
38718;BME280;24468;52.128;9.278;2023-05-07T11:57:21;101124.69;;;18.02;100.00
38718;BME280;24468;52.128;9.278;2023-05-07T11:59:47;101123.31;;;18.09;100.00
38718;BME280;24468;52.128;9.278;2023-05-07T12:02:17;101114.81;;;17.43;100.00
38718;BME280;24468;52.128;9.278;2023-05-07T12:04:43;101129.13;;;17.18;100.00
38718;BME280;24468;52.128;9.278;2023-05-07T12:07:13;101114.13;;;18.10;100.00
38718;BME280;24468;52.128;9.278;2023-05-07T12:09:40;101122.09;;;18.27;100.00
38718;BME280;24468;52.128;9.278;2023-05-07T12:12:06;101114.56;;;18.71;100.00
38718;BME280;24468;52.128;9.278;2023-05-07T12:14:32;101125.78;;;18.53;100.00
38718;BME280;24468;52.128;9.278;2023-05-07T12:16:59;101112.88;;;18.82;100.00
38718;BME280;24468;52.128;9.278;2023-05-07T12:19:31;101113.22;;;19.03;99.34
38718;BME280;24468;52.128;9.278;2023-05-07T12:21:57;101111.88;;;18.83;99.46
38718;BME280;24468;52.128;9.278;2023-05-07T12:24:23;101099.72;;;19.51;94.85
38718;BME280;24468;52.128;9.278;2023-05-07T12:26:49;101099.72;;;19.39;95.72
38718;BME280;24468;52.128;9.278;2023-05-07T12:29:14;101110.03;;;19.22;100.00
38718;BME280;24468;52.128;9.278;2023-05-07T12:31:41;101103.38;;;19.39;98.23
38718;BME280;24468;52.128;9.278;2023-05-07T12:34:07;101111.38;;;19.92;98.51
38718;BME280;24468;52.128;9.278;2023-05-07T12:36:40;101102.00;;;19.58;93.05
38718;BME280;24468;52.128;9.278;2023-05-07T12:39:07;101110.47;;;19.67;96.59
38718;BME280;24468;52.128;9.278;2023-05-07T12:41:55;101103.31;;;19.77;94.73
38718;BME280;24468;52.128;9.278;2023-05-07T12:44:32;101111.47;;;19.90;92.34
38718;BME280;24468;52.128;9.278;2023-05-07T12:47:01;101096.63;;;19.82;92.19
38718;BME280;24468;52.128;9.278;2023-05-07T12:49:26;101105.31;;;19.50;94.42